Time;durP1;ratioP1;P1;durP2;ratioP2;P2;SDS_P1;SDS_P2;PMS_P1;PMS_P2;Temp;Humidity;BMP_temperature;BMP_pressure;BME280_temperature;BME280_humidity;BME280_pressure;Samples;Min_cycle;Max_cycle;Signal;HPM_P1;HPM_P2
2023/09/10 00:01:45;;;;;;;27.05;19.45;;;;;;;18.66;99.64;101602.06;5028587;28;20087;-67
2023/09/10 00:04:11;;;;;;;25.08;20.77;;;;;;;18.67;99.57;101610.19;5028435;28;20044;-68
2023/09/10 00:06:36;;;;;;;26.35;18.85;;;;;;;18.64;98.47;101610.47;5028414;28;20053;-68
2023/09/10 00:09:03;;;;;;;29.85;19.92;;;;;;;18.63;98.45;101607.88;5028694;28;20034;-68
2023/09/10 00:11:28;;;;;;;34.25;24.92;;;;;;;18.61;99.91;101606.13;5027562;28;20033;-67
2023/09/10 00:13:54;;;;;;;32.38;25.95;;;;;;;18.58;100.00;101598.13;5028159;28;20351;-68
2023/09/10 00:16:19;;;;;;;31.65;26.10;;;;;;;18.57;100.00;101606.56;5028616;28;20056;-69
2023/09/10 00:18:44;;;;;;;28.20;22.55;;;;;;;18.56;100.00;101599.31;5028052;28;20123;-70
2023/09/10 00:21:10;;;;;;;33.78;25.88;;;;;;;18.54;100.00;101604.09;5028707;28;20034;-68
2023/09/10 00:23:35;;;;;;;33.42;25.40;;;;;;;18.54;100.00;101604.09;5028463;28;20040;-67
2023/09/10 00:26:00;;;;;;;36.83;27.58;;;;;;;18.52;100.00;101598.72;5041714;28;20468;-67
2023/09/10 00:28:26;;;;;;;45.47;30.55;;;;;;;18.48;100.00;101597.28;5027359;28;20029;-68
2023/09/10 00:30:52;;;;;;;29.00;22.98;;;;;;;18.42;100.00;101602.47;5027689;28;20044;-68
2023/09/10 00:33:18;;;;;;;35.28;26.38;;;;;;;18.43;100.00;101602.34;5026651;28;20788;-69
2023/09/10 00:35:43;;;;;;;29.42;21.50;;;;;;;18.43;100.00;101595.97;5045263;28;20108;-70
2023/09/10 00:38:08;;;;;;;29.27;19.92;;;;;;;18.42;100.00;101594.19;5046973;28;20114;-68
2023/09/10 00:40:34;;;;;;;29.33;19.98;;;;;;;18.41;100.00;101596.09;5024947;28;20085;-68
2023/09/10 00:42:59;;;;;;;30.77;21.10;;;;;;;18.42;100.00;101592.34;5026955;28;20036;-68
2023/09/10 00:45:25;;;;;;;27.65;19.75;;;;;;;18.41;99.76;101585.06;5027668;28;20560;-71
2023/09/10 00:47:50;;;;;;;26.90;20.00;;;;;;;18.43;98.56;101584.94;5028285;28;20123;-68
2023/09/10 00:50:17;;;;;;;25.83;18.63;;;;;;;18.41;97.93;101592.47;5043229;28;20098;-68
2023/09/10 00:52:46;;;;;;;30.58;21.92;;;;;;;18.40;98.47;101591.59;5044859;28;20341;-68
2023/09/10 00:55:13;;;;;;;26.63;19.92;;;;;;;18.39;98.47;101592.63;5036292;28;20037;-67
2023/09/10 00:57:39;;;;;;;26.73;19.17;;;;;;;18.37;98.54;101589.13;5042730;28;20084;-69
2023/09/10 01:00:09;;;;;;;28.40;21.23;;;;;;;18.37;98.11;101594.63;5047801;28;20084;-68
2023/09/10 01:02:34;;;;;;;30.92;23.55;;;;;;;18.36;98.40;101598.41;5047540;28;20032;-67
2023/09/10 01:05:00;;;;;;;31.23;23.50;;;;;;;18.36;97.60;101585.50;5046040;28;20123;-68
2023/09/10 01:07:25;;;;;;;34.33;25.95;;;;;;;18.33;97.89;101587.69;5027632;28;20029;-69
2023/09/10 01:09:51;;;;;;;33.95;24.08;;;;;;;18.33;97.75;101584.94;5028489;28;20042;-68
2023/09/10 01:12:44;;;;;;;29.05;24.52;;;;;;;18.33;97.64;101584.94;5028856;28;20127;-68
2023/09/10 01:15:24;;;;;;;30.60;25.23;;;;;;;18.31;97.79;101589.72;5027706;28;20045;-68
2023/09/10 01:17:59;;;;;;;33.63;24.67;;;;;;;18.27;98.02;101597.38;5027497;28;20436;-70
2023/09/10 01:21:05;;;;;;;31.42;25.80;;;;;;;18.29;97.57;101586.25;5028224;28;20038;-70
2023/09/10 01:23:42;;;;;;;34.33;25.38;;;;;;;18.28;97.94;101590.03;5042861;28;20108;-68
2023/09/10 01:26:08;;;;;;;42.55;26.50;;;;;;;18.28;97.99;101588.13;5035852;28;20120;-69
2023/09/10 01:28:33;;;;;;;34.42;25.45;;;;;;;18.28;97.00;101585.38;5044498;28;20119;-70
2023/09/10 01:30:58;;;;;;;35.05;27.30;;;;;;;18.24;97.57;101586.66;5047553;28;20071;-67
2023/09/10 01:33:35;;;;;;;33.47;26.73;;;;;;;18.24;98.26;101589.44;5039968;28;20029;-67
2023/09/10 01:36:20;;;;;;;34.08;26.98;;;;;;;18.24;98.33;101591.31;5027505;28;20373;-68
2023/09/10 01:38:59;;;;;;;44.85;31.30;;;;;;;18.21;98.77;101589.69;5025954;28;20095;-68
2023/09/10 01:41:26;;;;;;;42.45;31.13;;;;;;;18.19;99.45;101590.88;5044131;28;20037;-70
2023/09/10 01:43:53;;;;;;;43.90;34.00;;;;;;;18.17;99.93;101587.38;5045846;28;20044;-69
2023/09/10 01:46:19;;;;;;;46.95;35.78;;;;;;;18.14;100.00;101591.28;5029137;28;20028;-70
2023/09/10 01:48:46;;;;;;;40.63;32.55;;;;;;;18.13;100.00;101597.78;5041374;28;20033;-68
2023/09/10 01:51:11;;;;;;;40.85;30.73;;;;;;;18.12;100.00;101596.06;5042743;28;20392;-67
2023/09/10 01:53:37;;;;;;;41.50;30.33;;;;;;;18.11;99.57;101594.31;5042303;28;20030;-68
2023/09/10 01:56:02;;;;;;;39.03;27.67;;;;;;;18.12;98.86;101603.44;5019011;28;20068;-69
2023/09/10 01:58:28;;;;;;;38.05;27.40;;;;;;;18.12;98.67;101595.19;5041724;28;20643;-67
2023/09/10 02:00:53;;;;;;;44.13;33.95;;;;;;;18.10;100.00;101598.09;5031347;28;20119;-68
2023/09/10 02:03:19;;;;;;;47.03;33.47;;;;;;;18.10;100.00;101598.97;5046946;28;20451;-68
2023/09/10 02:05:44;;;;;;;49.97;34.63;;;;;;;18.08;100.00;101606.47;5037132;28;20060;-68
2023/09/10 02:08:10;;;;;;;43.63;33.15;;;;;;;18.09;100.00;101610.09;5042046;28;20124;-68
2023/09/10 02:10:36;;;;;;;52.20;36.47;;;;;;;18.08;100.00;101602.84;5025288;28;20021;-69
2023/09/10 02:13:02;;;;;;;44.50;34.00;;;;;;;18.08;100.00;101611.13;5026159;28;20033;-69
2023/09/10 02:15:29;;;;;;;44.67;35.33;;;;;;;18.05;100.00;101601.28;5034246;28;20411;-68
2023/09/10 02:17:54;;;;;;;46.42;34.40;;;;;;;18.04;100.00;101612.41;5046079;28;20036;-69
2023/09/10 02:20:19;;;;;;;38.67;31.10;;;;;;;18.00;100.00;101605.44;5018113;28;20095;-68
2023/09/10 02:22:46;;;;;;;42.25;31.00;;;;;;;18.00;100.00;101611.84;5042060;28;20091;-68
2023/09/10 02:25:12;;;;;;;43.38;32.85;;;;;;;17.99;100.00;101609.22;5043936;28;20045;-67
2023/09/10 02:27:38;;;;;;;44.85;31.90;;;;;;;17.96;100.00;101609.50;5026948;28;20485;-68
2023/09/10 02:30:04;;;;;;;46.55;33.85;;;;;;;17.95;100.00;101610.50;5025910;28;20087;-69
2023/09/10 02:32:31;;;;;;;47.35;33.58;;;;;;;17.93;100.00;101618.03;5026653;28;20067;-69
2023/09/10 02:34:57;;;;;;;44.88;31.40;;;;;;;17.90;100.00;101605.41;5025562;28;20030;-69
2023/09/10 02:37:22;;;;;;;44.15;32.10;;;;;;;17.88;100.00;101612.09;5026943;28;20026;-69
2023/09/10 02:39:48;;;;;;;43.17;30.58;;;;;;;17.85;100.00;101610.47;5041159;28;20204;-68
2023/09/10 02:42:13;;;;;;;40.92;31.77;;;;;;;17.82;100.00;101608.03;5029221;28;20029;-69
2023/09/10 02:44:38;;;;;;;48.65;36.22;;;;;;;17.79;100.00;101608.28;5029640;28;20400;-68
2023/09/10 02:47:04;;;;;;;52.85;37.03;;;;;;;17.77;100.00;101602.94;5030090;28;20021;-68
2023/09/10 02:49:29;;;;;;;48.75;32.40;;;;;;;17.76;100.00;101603.91;5029944;28;20049;-68
2023/09/10 02:51:55;;;;;;;44.40;30.55;;;;;;;17.76;100.00;101609.41;5029959;28;20059;-71
2023/09/10 02:54:20;;;;;;;36.60;29.05;;;;;;;17.75;100.00;101610.44;5030451;28;20041;-68
2023/09/10 02:56:46;;;;;;;45.05;33.55;;;;;;;17.75;100.00;101604.94;5037736;28;20040;-68
2023/09/10 02:59:25;;;;;;;53.03;38.97;;;;;;;17.73;100.00;101611.56;5049118;28;20053;-68
2023/09/10 03:01:51;;;;;;;50.67;35.35;;;;;;;17.72;100.00;101602.44;5047604;28;20029;-70
2023/09/10 03:04:17;;;;;;;41.80;32.95;;;;;;;17.72;100.00;101607.06;5049630;28;20037;-68
2023/09/10 03:06:43;;;;;;;45.80;33.70;;;;;;;17.71;100.00;101608.94;5047300;28;20032;-70
2023/09/10 03:09:09;;;;;;;46.42;33.67;;;;;;;17.70;100.00;101611.84;5049845;28;20044;-69
2023/09/10 03:11:37;;;;;;;46.58;32.88;;;;;;;17.69;100.00;101607.34;5037017;28;20034;-68
2023/09/10 03:14:03;;;;;;;42.25;32.63;;;;;;;17.67;100.00;101606.59;5027770;28;20544;-68
2023/09/10 03:16:28;;;;;;;41.97;32.20;;;;;;;17.65;100.00;101608.63;5045299;28;20035;-69
2023/09/10 03:18:54;;;;;;;47.40;35.35;;;;;;;17.62;100.00;101595.13;5030134;28;20033;-69
2023/09/10 03:21:20;;;;;;;40.47;31.73;;;;;;;17.63;100.00;101610.66;5040833;28;20033;-69
2023/09/10 03:23:46;;;;;;;44.50;32.55;;;;;;;17.60;100.00;101598.03;5042195;28;20028;-69
2023/09/10 03:26:12;;;;;;;37.83;29.27;;;;;;;17.58;100.00;101600.94;5029066;28;20033;-68
2023/09/10 03:28:37;;;;;;;36.25;28.02;;;;;;;17.59;100.00;101607.31;5044056;28;20045;-68
2023/09/10 03:31:03;;;;;;;36.25;28.65;;;;;;;17.56;100.00;101600.19;5045089;28;20034;-67
2023/09/10 03:33:29;;;;;;;42.90;31.55;;;;;;;17.56;100.00;101594.69;5044651;28;20504;-68
2023/09/10 03:35:54;;;;;;;41.67;31.40;;;;;;;17.55;100.00;101589.34;5046693;28;20036;-71
2023/09/10 03:38:20;;;;;;;47.90;33.03;;;;;;;17.54;100.00;101599.47;5028104;28;20322;-69
2023/09/10 03:40:45;;;;;;;46.25;33.60;;;;;;;17.53;100.00;101594.09;5044190;28;20045;-68
2023/09/10 03:43:12;;;;;;;42.92;32.10;;;;;;;17.51;100.00;101591.47;5043695;28;20116;-68
2023/09/10 03:45:37;;;;;;;40.58;31.30;;;;;;;17.51;100.00;101602.47;5029597;28;20116;-69
2023/09/10 03:48:03;;;;;;;40.80;29.77;;;;;;;17.52;100.00;101597.84;5044227;28;20117;-68
2023/09/10 03:50:28;;;;;;;36.63;27.98;;;;;;;17.48;100.00;101596.38;5028898;28;22069;-68
2023/09/10 03:52:54;;;;;;;39.97;29.92;;;;;;;17.48;100.00;101594.50;5044343;28;20041;-68
2023/09/10 03:55:19;;;;;;;43.35;33.40;;;;;;;17.46;100.00;101591.03;5034180;28;20038;-69
2023/09/10 03:57:44;;;;;;;40.00;30.02;;;;;;;17.46;100.00;101588.28;5038235;28;20648;-68
2023/09/10 04:00:11;;;;;;;37.53;28.70;;;;;;;17.46;100.00;101588.28;5024151;28;20136;-68
2023/09/10 04:02:39;;;;;;;40.50;30.95;;;;;;;17.46;100.00;101584.66;5044305;28;20493;-68
2023/09/10 04:05:05;;;;;;;44.20;32.45;;;;;;;17.42;100.00;101578.53;5031041;28;20063;-69
2023/09/10 04:07:31;;;;;;;47.55;33.55;;;;;;;17.44;100.00;101578.41;5047144;28;20090;-68
2023/09/10 04:09:57;;;;;;;49.42;35.08;;;;;;;17.40;100.00;101575.09;5045828;28;20052;-68
2023/09/10 04:12:22;;;;;;;72.85;46.65;;;;;;;17.40;100.00;101574.22;5042995;28;20029;-69
2023/09/10 04:14:47;;;;;;;52.55;37.42;;;;;;;17.41;100.00;101576.81;5022831;28;20037;-69
2023/09/10 04:17:17;;;;;;;47.45;35.78;;;;;;;17.39;100.00;101581.56;5044410;28;20503;-68
2023/09/10 04:19:43;;;;;;;62.78;42.75;;;;;;;17.38;100.00;101585.31;5027066;28;20037;-68
2023/09/10 04:22:08;;;;;;;57.72;41.13;;;;;;;17.39;100.00;101578.81;5041219;28;20037;-69
2023/09/10 04:24:33;;;;;;;57.90;40.20;;;;;;;17.38;100.00;101574.31;5028627;28;20099;-68
2023/09/10 04:26:59;;;;;;;44.38;35.30;;;;;;;17.36;100.00;101578.25;5027658;28;20045;-68
2023/09/10 04:29:25;;;;;;;51.33;36.50;;;;;;;17.38;100.00;101576.22;5042748;28;20140;-70
2023/09/10 04:31:50;;;;;;;49.25;34.88;;;;;;;17.38;100.00;101578.97;5027834;28;20086;-68
2023/09/10 04:34:16;;;;;;;49.80;37.30;;;;;;;17.34;100.00;101578.34;5043226;28;20397;-68
2023/09/10 04:36:42;;;;;;;51.13;37.22;;;;;;;17.31;100.00;101575.91;5028031;28;20164;-68
2023/09/10 04:39:08;;;;;;;53.30;40.72;;;;;;;17.30;100.00;101577.78;5028432;28;20401;-68
2023/09/10 04:41:36;;;;;;;53.00;40.47;;;;;;;17.30;100.00;101585.16;5045901;28;20037;-68
2023/09/10 04:44:04;;;;;;;57.60;42.40;;;;;;;17.29;100.00;101580.66;5044024;28;20112;-68
2023/09/10 04:46:30;;;;;;;56.63;39.05;;;;;;;17.26;100.00;101584.56;5030514;28;20037;-68
2023/09/10 04:48:59;;;;;;;60.10;44.60;;;;;;;17.30;100.00;101583.28;5007582;28;20059;-68
2023/09/10 04:51:24;;;;;;;64.03;45.22;;;;;;;17.31;100.00;101584.16;5027146;28;20034;-70
2023/09/10 04:53:50;;;;;;;67.45;48.63;;;;;;;17.30;100.00;101580.53;5027222;28;20393;-69
2023/09/10 04:56:15;;;;;;;68.10;46.17;;;;;;;17.28;100.00;101576.16;5028113;28;20083;-68
2023/09/10 04:58:41;;;;;;;53.60;41.53;;;;;;;17.25;100.00;101584.69;5047273;28;20044;-69
2023/09/10 05:01:07;;;;;;;58.25;42.00;;;;;;;17.24;100.00;101583.81;5046444;28;20193;-68
2023/09/10 05:03:32;;;;;;;58.85;44.25;;;;;;;17.23;100.00;101584.81;5045383;28;20131;-68
2023/09/10 05:06:00;;;;;;;59.60;43.03;;;;;;;17.24;100.00;101596.69;5046478;28;20404;-68
2023/09/10 05:08:26;;;;;;;50.58;36.60;;;;;;;17.23;100.00;101586.72;5046343;28;20552;-68
2023/09/10 05:10:51;;;;;;;51.97;39.30;;;;;;;17.23;100.00;101594.97;5043733;28;20103;-68
2023/09/10 05:13:17;;;;;;;57.20;41.45;;;;;;;17.22;100.00;101593.22;5042326;28;20033;-68
2023/09/10 05:15:48;;;;;;;58.22;40.95;;;;;;;17.22;100.00;101602.34;5043386;28;20041;-69
2023/09/10 05:18:15;;;;;;;60.67;43.83;;;;;;;17.24;100.00;101600.31;5036542;28;20196;-68
2023/09/10 05:20:41;;;;;;;68.68;47.92;;;;;;;17.25;100.00;101595.69;5046715;28;20028;-69
2023/09/10 05:23:06;;;;;;;55.85;40.55;;;;;;;17.26;100.00;101601.06;5046524;28;20039;-69
2023/09/10 05:25:38;;;;;;;52.60;39.17;;;;;;;17.28;100.00;101596.28;5047622;28;20040;-70
2023/09/10 05:28:04;;;;;;;56.25;40.92;;;;;;;17.28;100.00;101596.28;5013526;28;20073;-68
2023/09/10 05:30:31;;;;;;;54.60;39.30;;;;;;;17.28;100.00;101601.78;5006950;28;20053;-70
2023/09/10 05:32:57;;;;;;;58.42;42.33;;;;;;;17.31;100.00;101604.28;5030500;28;20151;-69
2023/09/10 05:35:23;;;;;;;69.72;49.28;;;;;;;17.32;100.00;101599.63;5040534;28;20030;-69
2023/09/10 05:37:48;;;;;;;71.97;49.97;;;;;;;17.31;100.00;101598.78;5023049;28;20044;-68
2023/09/10 05:40:14;;;;;;;58.72;43.00;;;;;;;17.33;100.00;101610.50;5023256;28;20046;-68
2023/09/10 05:42:39;;;;;;;64.43;43.38;;;;;;;17.32;100.00;101600.50;5041031;28;20044;-69
2023/09/10 05:45:05;;;;;;;61.88;45.88;;;;;;;17.38;100.00;101611.97;5046396;28;20469;-69
2023/09/10 05:47:31;;;;;;;63.08;46.55;;;;;;;17.41;100.00;101608.97;5047236;28;20043;-69
2023/09/10 05:49:56;;;;;;;56.88;40.28;;;;;;;17.42;100.00;101596.94;5033999;28;20025;-69
2023/09/10 05:52:22;;;;;;;53.30;40.70;;;;;;;17.46;100.00;101604.78;5043632;28;20060;-69
2023/09/10 05:54:47;;;;;;;70.35;45.70;;;;;;;17.50;100.00;101608.13;5044595;28;20083;-69
2023/09/10 05:57:13;;;;;;;59.10;42.83;;;;;;;17.53;100.00;101618.84;5031723;28;20469;-69
2023/09/10 05:59:38;;;;;;;68.40;47.72;;;;;;;17.56;100.00;101611.19;5041668;28;20140;-68
2023/09/10 06:02:03;;;;;;;65.00;46.55;;;;;;;17.58;100.00;101611.94;5043098;28;20383;-69
2023/09/10 06:04:29;;;;;;;67.95;47.83;;;;;;;17.63;100.00;101616.16;5041307;28;20492;-69
2023/09/10 06:06:54;;;;;;;60.58;44.63;;;;;;;17.66;100.00;101621.38;5028096;28;20406;-71
2023/09/10 06:09:20;;;;;;;61.17;43.20;;;;;;;17.68;100.00;101623.00;5027955;28;20034;-68
2023/09/10 06:11:45;;;;;;;53.70;40.17;;;;;;;17.74;100.00;101625.22;5044276;28;20052;-69
2023/09/10 06:14:10;;;;;;;55.53;42.72;;;;;;;17.78;100.00;101628.56;5045491;28;20079;-69
2023/09/10 06:16:36;;;;;;;68.80;45.42;;;;;;;17.83;100.00;101629.88;5048636;28;20099;-69
2023/09/10 06:19:01;;;;;;;66.40;47.90;;;;;;;17.88;100.00;101629.47;5050731;28;20033;-69
2023/09/10 06:21:28;;;;;;;71.28;51.60;;;;;;;17.95;100.00;101633.44;5051305;28;20514;-69
2023/09/10 06:23:53;;;;;;;72.65;51.03;;;;;;;17.99;100.00;101625.72;5036020;28;20033;-68
2023/09/10 06:26:19;;;;;;;79.63;54.10;;;;;;;18.02;100.00;101634.59;5047713;28;20507;-68
2023/09/10 06:28:45;;;;;;;78.22;56.17;;;;;;;18.06;100.00;101626.94;5048600;28;20028;-69
2023/09/10 06:31:10;;;;;;;74.00;53.95;;;;;;;18.11;100.00;101630.13;5049449;28;20044;-70
2023/09/10 06:33:36;;;;;;;70.10;50.22;;;;;;;18.16;100.00;101630.56;5036569;28;20030;-68
2023/09/10 06:36:01;;;;;;;67.10;49.45;;;;;;;18.22;100.00;101631.88;5029398;28;20053;-69
2023/09/10 06:38:28;;;;;;;74.53;55.67;;;;;;;18.28;100.00;101634.97;5045807;28;20029;-68
2023/09/10 06:40:54;;;;;;;77.35;54.40;;;;;;;18.33;100.00;101632.66;5037949;28;20111;-69
2023/09/10 06:43:19;;;;;;;76.43;52.75;;;;;;;18.37;100.00;101633.22;5030083;28;20037;-69
2023/09/10 06:46:04;;;;;;;73.47;51.63;;;;;;;18.46;100.00;101632.34;5029436;28;20443;-68
2023/09/10 06:48:29;;;;;;;71.13;51.13;;;;;;;18.52;100.00;101637.31;5030061;28;20033;-69
2023/09/10 06:50:57;;;;;;;74.25;54.05;;;;;;;18.58;100.00;101636.72;5029849;28;20041;-70
2023/09/10 06:53:22;;;;;;;77.90;55.67;;;;;;;18.64;100.00;101631.66;5030728;28;20038;-69
2023/09/10 06:55:47;;;;;;;84.43;58.65;;;;;;;18.70;100.00;101645.78;5020661;28;20033;-69
2023/09/10 06:58:14;;;;;;;74.75;54.38;;;;;;;18.77;100.00;101638.66;5029112;28;20042;-68
2023/09/10 07:00:40;;;;;;;82.97;56.78;;;;;;;18.84;100.00;101642.59;5030255;28;20057;-68
2023/09/10 07:03:06;;;;;;;75.72;55.13;;;;;;;18.92;100.00;101641.84;5030096;28;20544;-69
2023/09/10 07:05:32;;;;;;;69.78;50.20;;;;;;;18.98;100.00;101649.53;5029768;28;20033;-69
2023/09/10 07:07:57;;;;;;;76.82;56.20;;;;;;;19.04;100.00;101635.16;5029736;28;20468;-68
2023/09/10 07:10:22;;;;;;;75.97;54.03;;;;;;;19.13;100.00;101643.59;5030693;28;20464;-70
2023/09/10 07:12:48;;;;;;;73.45;50.92;;;;;;;19.19;100.00;101642.97;5028177;28;20197;-69
2023/09/10 07:15:13;;;;;;;78.07;54.70;;;;;;;19.28;100.00;101645.72;5030196;28;20033;-70
2023/09/10 07:17:38;;;;;;;69.53;51.40;;;;;;;19.33;100.00;101643.38;5029601;28;20079;-69
2023/09/10 07:20:04;;;;;;;71.70;51.78;;;;;;;19.42;100.00;101647.13;5029494;28;20037;-69
2023/09/10 07:22:29;;;;;;;79.72;53.50;;;;;;;19.52;100.00;101645.22;5029715;28;20029;-69
2023/09/10 07:24:55;;;;;;;72.63;54.70;;;;;;;19.62;100.00;101645.22;5042795;28;20033;-70
2023/09/10 07:27:20;;;;;;;75.63;54.45;;;;;;;19.70;100.00;101639.81;5034055;28;20346;-69
2023/09/10 07:29:45;;;;;;;69.63;48.65;;;;;;;19.78;100.00;101641.84;5029101;28;20455;-68
2023/09/10 07:32:11;;;;;;;73.40;53.40;;;;;;;19.85;100.00;101648.47;5029785;28;20473;-68
2023/09/10 07:34:36;;;;;;;66.85;48.30;;;;;;;19.92;100.00;101641.34;5029289;28;20121;-68
2023/09/10 07:37:02;;;;;;;67.53;49.72;;;;;;;20.00;100.00;101646.94;5048179;28;20076;-68
2023/09/10 07:39:29;;;;;;;70.05;48.40;;;;;;;20.09;100.00;101651.53;5016887;28;20747;-68
2023/09/10 07:41:55;;;;;;;64.00;47.17;;;;;;;20.26;100.00;101643.47;5028872;28;20037;-69
2023/09/10 07:44:20;;;;;;;63.78;46.95;;;;;;;20.44;100.00;101640.75;5044174;28;20043;-69
2023/09/10 07:46:45;;;;;;;62.05;46.10;;;;;;;20.55;100.00;101646.06;5042587;28;20082;-68
2023/09/10 07:49:11;;;;;;;62.10;46.50;;;;;;;20.63;100.00;101646.16;5049062;28;20095;-69
2023/09/10 07:51:38;;;;;;;56.47;44.38;;;;;;;20.71;100.00;101642.63;5044740;28;20037;-68
2023/09/10 07:54:04;;;;;;;57.13;43.10;;;;;;;20.78;100.00;101646.47;5028971;28;20096;-69
2023/09/10 07:56:29;;;;;;;53.95;41.33;;;;;;;20.89;100.00;101652.66;5019240;28;20469;-69
2023/09/10 07:58:55;;;;;;;58.53;41.38;;;;;;;21.00;100.00;101651.53;5028095;28;20456;-70
2023/09/10 08:01:20;;;;;;;56.33;39.15;;;;;;;21.09;100.00;101656.09;5029844;28;20104;-68
2023/09/10 08:03:45;;;;;;;48.75;38.50;;;;;;;21.21;100.00;101653.06;5028738;28;20025;-68
2023/09/10 08:06:11;;;;;;;56.78;40.05;;;;;;;21.37;100.00;101667.09;5043424;28;20040;-69
2023/09/10 08:08:36;;;;;;;53.63;37.63;;;;;;;21.49;100.00;101660.22;5028316;28;20112;-69
2023/09/10 08:11:01;;;;;;;58.33;36.60;;;;;;;21.68;100.00;101669.34;5028119;28;20037;-69
2023/09/10 08:13:27;;;;;;;43.38;34.20;;;;;;;21.88;100.00;101671.75;5043127;28;20563;-69
2023/09/10 08:15:52;;;;;;;48.28;35.88;;;;;;;22.07;100.00;101670.63;5029554;28;20444;-69
2023/09/10 08:18:18;;;;;;;48.15;34.13;;;;;;;22.17;99.59;101666.88;5028504;28;20053;-68
2023/09/10 08:20:43;;;;;;;44.78;33.13;;;;;;;22.26;100.00;101668.66;5028349;28;20397;-68
2023/09/10 08:23:09;;;;;;;40.50;31.08;;;;;;;22.36;98.93;101664.69;5028586;28;20041;-69
2023/09/10 08:25:35;;;;;;;45.67;33.05;;;;;;;22.48;99.19;101658.84;5028602;28;20041;-69
2023/09/10 08:28:01;;;;;;;43.97;31.58;;;;;;;22.60;99.78;101657.47;5026710;28;20091;-68
2023/09/10 08:30:27;;;;;;;37.45;29.50;;;;;;;22.77;97.43;101653.72;5027513;28;20041;-69
2023/09/10 08:32:53;;;;;;;42.22;29.90;;;;;;;23.00;97.19;101653.06;5028676;28;20489;-68
2023/09/10 08:35:20;;;;;;;37.55;28.23;;;;;;;23.23;96.80;101656.03;5045165;28;20041;-68
2023/09/10 08:37:45;;;;;;;34.58;28.17;;;;;;;23.31;94.82;101642.97;5042575;28;20455;-68
2023/09/10 08:40:11;;;;;;;38.45;29.42;;;;;;;23.43;95.92;101649.06;5027749;28;20029;-69
2023/09/10 08:42:45;;;;;;;39.83;28.25;;;;;;;23.50;93.94;101655.66;5026600;28;20132;-70
2023/09/10 08:45:11;;;;;;;35.65;24.52;;;;;;;23.59;92.82;101650.91;5027981;28;20551;-70
2023/09/10 08:47:39;;;;;;;35.80;25.00;;;;;;;23.63;89.71;101658.72;5047747;28;20069;-68
2023/09/10 08:50:13;;;;;;;30.25;23.60;;;;;;;23.74;92.36;101649.22;5048222;28;20091;-69
2023/09/10 08:52:43;;;;;;;30.80;24.05;;;;;;;23.88;90.18;101654.03;5028101;28;20041;-69
2023/09/10 08:55:11;;;;;;;31.77;23.17;;;;;;;23.95;89.95;101653.31;5022150;28;20045;-69
2023/09/10 08:57:38;;;;;;;34.17;24.17;;;;;;;24.15;89.23;101654.59;5022821;28;20030;-68
2023/09/10 09:00:12;;;;;;;27.15;20.50;;;;;;;24.39;91.10;101648.13;5027927;28;20045;-69
2023/09/10 09:02:41;;;;;;;26.60;20.77;;;;;;;24.55;89.76;101655.47;5027289;28;20042;-69
2023/09/10 09:05:07;;;;;;;28.90;21.40;;;;;;;24.75;89.67;101661.44;5027834;28;20076;-69
2023/09/10 09:07:47;;;;;;;29.45;21.42;;;;;;;24.84;86.85;101652.84;5042779;28;20033;-69
2023/09/10 09:10:21;;;;;;;31.60;19.45;;;;;;;24.95;82.75;101657.13;5028163;28;20136;-68
2023/09/10 09:12:49;;;;;;;27.17;19.00;;;;;;;25.13;84.32;101656.81;5043504;28;20136;-69
2023/09/10 09:15:15;;;;;;;31.67;18.23;;;;;;;25.24;81.76;101656.41;5047649;28;20044;-68
2023/09/10 09:17:42;;;;;;;30.52;18.17;;;;;;;25.27;83.10;101649.56;5047630;28;20037;-69
2023/09/10 09:20:10;;;;;;;22.52;17.88;;;;;;;25.35;83.21;101649.50;5029301;28;20037;-69
2023/09/10 09:22:39;;;;;;;26.90;19.60;;;;;;;25.43;81.18;101646.63;5027341;28;20182;-69
2023/09/10 09:25:06;;;;;;;25.33;18.48;;;;;;;25.53;82.50;101646.38;5027875;28;20037;-69
2023/09/10 09:27:33;;;;;;;32.05;17.50;;;;;;;25.61;82.68;101646.28;5026688;28;20029;-69
2023/09/10 09:29:59;;;;;;;24.60;16.20;;;;;;;25.88;83.57;101642.88;5027881;28;20067;-70
2023/09/10 09:32:26;;;;;;;21.13;16.05;;;;;;;26.15;82.79;101646.88;5027413;28;20040;-70
2023/09/10 09:34:51;;;;;;;22.80;15.98;;;;;;;26.48;78.70;101648.38;5027553;28;20029;-69
2023/09/10 09:37:19;;;;;;;24.33;15.43;;;;;;;26.76;78.78;101645.69;5027810;28;20036;-69
2023/09/10 09:39:45;;;;;;;20.35;15.32;;;;;;;27.11;79.98;101641.16;5042242;28;20064;-70
2023/09/10 09:42:10;;;;;;;23.35;14.32;;;;;;;27.44;74.00;101641.44;5026642;28;20555;-69
2023/09/10 09:44:36;;;;;;;22.13;13.75;;;;;;;27.69;74.52;101634.31;5025891;28;20033;-69
2023/09/10 09:47:02;;;;;;;20.52;12.77;;;;;;;28.02;75.08;101636.47;5027488;28;20022;-69
2023/09/10 09:49:27;;;;;;;20.58;13.32;;;;;;;28.23;71.19;101627.97;5027374;28;20048;-69
2023/09/10 09:51:52;;;;;;;18.45;13.55;;;;;;;28.28;70.94;101632.94;5032172;28;20041;-68
2023/09/10 09:54:18;;;;;;;21.00;12.82;;;;;;;28.68;75.21;101627.53;5030545;28;20025;-69
2023/09/10 09:56:46;;;;;;;19.50;12.48;;;;;;;28.84;66.03;101626.25;5020670;28;20121;-70
2023/09/10 09:59:11;;;;;;;19.73;12.05;;;;;;;29.14;68.48;101633.19;5030345;28;20461;-69
2023/09/10 10:01:39;;;;;;;17.17;11.65;;;;;;;29.29;64.48;101630.22;5030812;28;20080;-69
2023/09/10 10:04:05;;;;;;;17.48;11.68;;;;;;;29.49;65.74;101633.00;5030671;28;20120;-68
2023/09/10 10:06:31;;;;;;;15.77;10.20;;;;;;;29.80;63.42;101626.75;5030869;28;20045;-69
2023/09/10 10:08:56;;;;;;;17.17;10.00;;;;;;;30.01;60.72;101627.53;5031002;28;20028;-69
2023/09/10 10:11:29;;;;;;;11.90;9.27;;;;;;;30.34;65.65;101622.66;5030222;28;20048;-69
2023/09/10 10:13:57;;;;;;;14.57;9.75;;;;;;;30.77;62.83;101633.28;5030092;28;20041;-70
2023/09/10 10:16:25;;;;;;;14.77;9.65;;;;;;;30.76;58.70;101631.56;5031219;28;20025;-69
2023/09/10 10:18:53;;;;;;;17.60;9.40;;;;;;;31.02;63.14;101613.66;5031142;28;20073;-69
2023/09/10 10:21:19;;;;;;;16.33;10.75;;;;;;;31.25;60.67;101618.66;5031031;28;20076;-69
2023/09/10 10:23:46;;;;;;;16.95;9.60;;;;;;;31.44;55.16;101617.66;5030009;28;20021;-70
2023/09/10 10:26:11;;;;;;;14.05;9.10;;;;;;;31.64;55.29;101611.81;5029875;28;20044;-69
2023/09/10 10:28:37;;;;;;;11.02;8.43;;;;;;;31.90;57.60;101615.47;5029866;28;20033;-70
2023/09/10 10:31:11;;;;;;;15.55;9.10;;;;;;;31.96;54.89;101614.53;5030839;28;20068;-69
2023/09/10 10:33:41;;;;;;;12.02;8.60;;;;;;;32.03;57.00;101609.66;5030089;28;20037;-69
2023/09/10 10:36:16;;;;;;;17.10;8.35;;;;;;;31.97;56.13;101614.28;5030304;28;20473;-69
2023/09/10 10:38:44;;;;;;;14.18;7.78;;;;;;;32.14;52.75;101606.09;5030591;28;20030;-69
2023/09/10 10:41:14;;;;;;;12.18;7.80;;;;;;;32.23;57.51;101609.44;5029706;28;20025;-70
2023/09/10 10:43:45;;;;;;;16.52;8.30;;;;;;;32.32;54.47;101608.03;5020223;28;20196;-70
2023/09/10 10:46:12;;;;;;;12.05;8.05;;;;;;;32.43;52.92;101600.75;5010707;28;20064;-69
2023/09/10 10:48:41;;;;;;;15.00;8.85;;;;;;;32.34;51.92;101608.63;5010175;28;20099;-69
2023/09/10 10:51:10;;;;;;;13.48;7.93;;;;;;;32.40;51.38;101604.03;5028485;28;20477;-69
2023/09/10 10:53:36;;;;;;;14.95;8.82;;;;;;;32.65;50.59;101607.59;5029371;28;20397;-70
2023/09/10 10:56:04;;;;;;;16.05;9.00;;;;;;;32.71;51.10;101600.97;5026743;28;20041;-69
2023/09/10 10:58:31;;;;;;;13.85;8.77;;;;;;;32.89;55.08;101605.69;5047835;28;20043;-68
2023/09/10 11:00:58;;;;;;;10.60;7.82;;;;;;;32.96;48.65;101598.00;5033736;28;20501;-69
2023/09/10 11:03:25;;;;;;;15.65;8.35;;;;;;;32.82;49.60;101599.28;5030267;28;20381;-69